Time;durP1;ratioP1;P1;durP2;ratioP2;P2;SDS_P1;SDS_P2;PMS_P1;PMS_P2;Temp;Humidity;BMP_temperature;BMP_pressure;BME280_temperature;BME280_humidity;BME280_pressure;Samples;Min_cycle;Max_cycle;Signal;HPM_P1;HPM_P2
2021/05/18 00:01:51;;;;;;;16.92;10.10;;;;;;;-143.98;100.00;68091.63;6262063;22;20012;-85
2021/05/18 00:04:17;;;;;;;20.10;10.43;;;;;;;-143.98;100.00;68091.63;6244350;22;20020;-85
2021/05/18 00:06:46;;;;;;;22.10;9.68;;;;;;;-143.98;100.00;68091.63;6270463;22;20028;-85
2021/05/18 00:11:58;;;;;;;19.63;10.02;;;;;;;-143.98;100.00;68091.63;6269479;22;20081;-85
2021/05/18 00:14:26;;;;;;;19.65;9.27;;;;;;;-143.98;100.00;68091.63;6257093;23;20302;-85
2021/05/18 00:16:54;;;;;;;20.02;9.88;;;;;;;-143.98;100.00;68091.63;6229828;23;20035;-85
2021/05/18 00:19:21;;;;;;;19.38;10.32;;;;;;;-143.98;100.00;68091.63;6228649;23;20073;-83
2021/05/18 00:21:48;;;;;;;19.70;11.23;;;;;;;-143.98;100.00;68091.63;6228304;23;20042;-84
2021/05/18 00:24:15;;;;;;;25.13;10.18;;;;;;;-143.98;100.00;68091.63;6228147;23;20272;-85
2021/05/18 00:26:42;;;;;;;21.13;9.93;;;;;;;-143.98;100.00;68091.63;6228764;23;20024;-85
2021/05/18 00:29:09;;;;;;;25.92;11.35;;;;;;;-143.98;100.00;68091.63;6240496;22;20042;-86
2021/05/18 00:31:36;;;;;;;23.83;11.90;;;;;;;-143.98;100.00;68091.63;6244554;22;20072;-84
2021/05/18 00:34:04;;;;;;;18.90;11.18;;;;;;;-143.98;100.00;68091.63;6270272;22;20039;-84
2021/05/18 00:36:33;;;;;;;17.92;11.32;;;;;;;-143.98;100.00;68091.63;6266122;22;20075;-84
2021/05/18 00:39:00;;;;;;;19.77;10.90;;;;;;;-143.98;100.00;68091.63;6253164;23;20455;-84
2021/05/18 00:41:39;;;;;;;18.52;11.13;;;;;;;-143.98;100.00;68091.63;6253315;23;20502;-85
2021/05/18 00:44:06;;;;;;;22.60;11.60;;;;;;;-143.98;100.00;68091.63;6225733;23;20028;-85
2021/05/18 00:46:33;;;;;;;17.95;11.70;;;;;;;-143.98;100.00;68091.63;6227177;23;20028;-84
2021/05/18 00:48:59;;;;;;;20.25;12.27;;;;;;;-143.98;100.00;68091.63;6227395;23;20035;-84
2021/05/18 00:51:27;;;;;;;22.15;12.15;;;;;;;-143.98;100.00;68091.63;6260723;23;20087;-84
2021/05/18 00:53:56;;;;;;;20.10;11.20;;;;;;;-143.98;100.00;68091.63;6233463;23;20076;-85
2021/05/18 00:58:26;;;;;;;23.15;11.55;;;;;;;-143.98;100.00;68091.63;6255471;23;20227;-84
2021/05/18 00:59:22;;;;;;;23.45;12.75;;;;;;;-143.98;100.00;68091.63;6253494;23;20035;-85
2021/05/18 01:01:49;;;;;;;23.38;12.65;;;;;;;-143.98;100.00;68091.63;6226460;23;20028;-84
2021/05/18 01:04:16;;;;;;;25.00;13.63;;;;;;;-143.98;100.00;68091.63;6226533;23;20091;-84
2021/05/18 01:06:43;;;;;;;20.70;12.13;;;;;;;-143.98;100.00;68091.63;6252114;23;20030;-84
2021/05/18 01:09:12;;;;;;;25.08;13.07;;;;;;;-143.98;100.00;68091.63;6227076;23;20024;-84
2021/05/18 01:11:45;;;;;;;25.10;13.45;;;;;;;-143.98;100.00;68091.63;6250416;23;20476;-84
2021/05/18 01:14:18;;;;;;;23.58;13.57;;;;;;;-143.98;100.00;68091.63;6225633;23;20356;-84
2021/05/18 01:16:52;;;;;;;26.35;13.60;;;;;;;-143.98;100.00;68091.63;6225855;23;20301;-85
2021/05/18 01:19:24;;;;;;;21.88;12.82;;;;;;;-143.98;100.00;68091.63;6226163;23;20035;-84
2021/05/18 01:21:51;;;;;;;29.25;13.63;;;;;;;-143.98;100.00;68091.63;6251679;23;20330;-85
2021/05/18 01:24:21;;;;;;;25.95;14.32;;;;;;;-143.98;100.00;68091.63;6227741;23;20373;-84
2021/05/18 01:26:50;;;;;;;23.98;12.60;;;;;;;-143.98;100.00;68091.63;6253070;23;20122;-84
2021/05/18 01:29:19;;;;;;;27.67;13.40;;;;;;;-143.98;100.00;68091.63;6255282;23;20024;-85
2021/05/18 01:31:47;;;;;;;27.67;14.82;;;;;;;-143.98;100.00;68091.63;6229361;23;20035;-85
2021/05/18 01:34:14;;;;;;;24.73;14.15;;;;;;;-143.98;100.00;68091.63;6229056;23;20030;-85
2021/05/18 01:36:42;;;;;;;28.95;13.30;;;;;;;-143.98;100.00;68091.63;6228889;23;20039;-84
2021/05/18 01:44:24;;;;;;;26.90;13.65;;;;;;;-143.98;100.00;68091.63;6256751;23;20024;-84
2021/05/18 01:46:53;;;;;;;25.35;13.73;;;;;;;-143.98;100.00;68091.63;6228684;23;20028;-85
2021/05/18 01:49:23;;;;;;;30.35;15.90;;;;;;;-143.98;100.00;68091.63;6252845;23;20086;-84
2021/05/18 01:51:58;;;;;;;27.15;14.23;;;;;;;-143.98;100.00;68091.63;6252565;23;20262;-84
2021/05/18 01:54:28;;;;;;;31.92;15.18;;;;;;;-143.98;100.00;68091.63;6251311;23;20357;-84
2021/05/18 01:59:37;;;;;;;29.58;16.33;;;;;;;-143.98;100.00;68091.63;6268936;23;20072;-85
2021/05/18 02:02:04;;;;;;;31.83;15.98;;;;;;;-143.98;100.00;68091.63;6255239;22;20024;-84
2021/05/18 02:04:35;;;;;;;36.25;17.58;;;;;;;-143.98;100.00;68091.63;6227633;23;20038;-84
2021/05/18 02:07:11;;;;;;;34.95;16.85;;;;;;;-143.98;100.00;68091.63;6232059;23;20027;-84
2021/05/18 02:09:48;;;;;;;37.20;17.80;;;;;;;-143.98;100.00;68091.63;6267799;23;20022;-84
2021/05/18 02:12:15;;;;;;;39.28;18.45;;;;;;;-143.98;100.00;68091.63;6253383;23;20394;-84
2021/05/18 02:14:44;;;;;;;37.30;18.80;;;;;;;-143.98;100.00;68091.63;6252347;23;20056;-85
2021/05/18 02:25:21;;;;;;;35.58;17.40;;;;;;;-143.98;100.00;68091.63;6250693;23;20093;-84
2021/05/18 02:27:51;;;;;;;32.20;17.25;;;;;;;-143.98;100.00;68091.63;6250006;23;20043;-84
2021/05/18 02:30:19;;;;;;;33.88;16.65;;;;;;;-143.98;100.00;68091.63;6225308;23;20032;-85
2021/05/18 02:32:47;;;;;;;35.00;16.73;;;;;;;-143.98;100.00;68091.63;6224659;23;20031;-84
2021/05/18 02:35:15;;;;;;;35.83;17.73;;;;;;;-143.98;100.00;68091.63;6250969;23;20024;-85
2021/05/18 02:37:45;;;;;;;37.78;17.85;;;;;;;-143.98;100.00;68091.63;6226157;23;20124;-85
2021/05/18 02:40:18;;;;;;;32.50;16.52;;;;;;;-143.98;100.00;68091.63;6250991;23;20062;-84
2021/05/18 02:43:03;;;;;;;37.22;17.83;;;;;;;-143.98;100.00;68091.63;6253129;22;20024;-85
2021/05/18 02:45:48;;;;;;;37.97;17.73;;;;;;;-143.98;100.00;68091.63;6225407;23;20055;-85
2021/05/18 02:51:03;;;;;;;38.78;16.80;;;;;;;-143.98;100.00;68091.63;6251211;23;20050;-84
2021/05/18 02:53:30;;;;;;;30.33;16.13;;;;;;;-143.98;100.00;68091.63;6253445;23;20028;-85
2021/05/18 02:56:07;;;;;;;40.83;19.10;;;;;;;-143.98;100.00;68091.63;6259477;23;20024;-85
2021/05/18 02:58:37;;;;;;;36.95;17.88;;;;;;;-143.98;100.00;68091.63;6236702;23;20024;-85
2021/05/18 03:01:04;;;;;;;34.15;16.65;;;;;;;-143.98;100.00;68091.63;6228440;23;20036;-84
2021/05/18 03:03:31;;;;;;;29.05;16.13;;;;;;;-143.98;100.00;68091.63;6226625;23;20024;-84
2021/05/18 03:05:58;;;;;;;39.13;18.08;;;;;;;-143.98;100.00;68091.63;6252873;23;20034;-85
2021/05/18 03:08:26;;;;;;;34.72;16.30;;;;;;;-143.98;100.00;68091.63;6251684;23;20024;-84
2021/05/18 03:10:53;;;;;;;37.78;17.27;;;;;;;-143.98;100.00;68091.63;6252243;23;20046;-84
2021/05/18 03:13:21;;;;;;;40.42;17.23;;;;;;;-143.98;100.00;68091.63;6250528;23;20109;-84
2021/05/18 03:15:48;;;;;;;39.03;17.17;;;;;;;-143.98;100.00;68091.63;6251971;23;20028;-85
2021/05/18 03:18:15;;;;;;;34.75;17.02;;;;;;;-143.98;100.00;68091.63;6227134;23;20175;-85
2021/05/18 03:20:42;;;;;;;32.22;16.27;;;;;;;-143.98;100.00;68091.63;6251703;23;20028;-84
2021/05/18 03:23:11;;;;;;;34.17;15.90;;;;;;;-143.98;100.00;68091.63;6252581;23;20078;-85
2021/05/18 03:25:38;;;;;;;33.00;16.08;;;;;;;-143.98;100.00;68091.63;6249563;23;20028;-84
2021/05/18 03:28:08;;;;;;;32.63;16.00;;;;;;;-143.98;100.00;68091.63;6225565;23;20477;-84
2021/05/18 03:30:54;;;;;;;30.42;15.60;;;;;;;-143.98;100.00;68091.63;6224435;23;20070;-84
2021/05/18 03:36:10;;;;;;;38.80;15.80;;;;;;;-143.98;100.00;68091.63;6250589;23;20040;-83
2021/05/18 03:38:41;;;;;;;27.55;14.85;;;;;;;-143.98;100.00;68091.63;6256252;23;20012;-83
2021/05/18 03:41:13;;;;;;;31.15;16.40;;;;;;;-143.98;100.00;68091.63;6243197;22;20012;-83
2021/05/18 04:19:03;;;;;;;38.47;15.55;;;;;;;-143.98;100.00;68091.63;6247628;23;20028;-83
2021/05/18 04:24:43;;;;;;;27.00;14.85;;;;;;;-143.98;100.00;68091.63;6246992;23;20078;-85
2021/05/18 04:51:29;;;;;;;25.50;11.13;;;;;;;-143.98;100.00;68091.63;6255381;23;20024;-84
2021/05/18 05:07:08;;;;;;;20.38;11.20;;;;;;;-143.98;100.00;68091.63;6251134;22;20120;-84
2021/05/18 05:09:44;;;;;;;24.50;12.95;;;;;;;-143.98;100.00;68091.63;6229310;22;20027;-84
2021/05/18 05:14:48;;;;;;;23.80;12.00;;;;;;;-143.98;100.00;68091.63;6264861;22;20052;-83
2021/05/18 05:17:16;;;;;;;23.85;12.38;;;;;;;-143.98;100.00;68091.63;6251200;22;20082;-84
2021/05/18 05:19:58;;;;;;;21.58;11.88;;;;;;;-143.98;100.00;68091.63;6249950;23;20028;-84
2021/05/18 05:22:28;;;;;;;23.52;12.48;;;;;;;-143.98;100.00;68091.63;6257911;22;20023;-85
2021/05/18 05:24:57;;;;;;;21.75;12.32;;;;;;;-143.98;100.00;68091.63;6236287;22;20302;-83
2021/05/18 05:27:24;;;;;;;22.92;11.43;;;;;;;-143.98;100.00;68091.63;6223942;23;20115;-84
2021/05/18 05:29:59;;;;;;;19.53;12.70;;;;;;;-143.98;100.00;68091.63;6223493;23;20028;-85
2021/05/18 05:32:34;;;;;;;25.08;12.23;;;;;;;-143.98;100.00;68091.63;6244492;23;20024;-85
2021/05/18 05:35:06;;;;;;;23.50;13.50;;;;;;;-143.98;100.00;68091.63;6222112;23;20024;-85
2021/05/18 05:37:36;;;;;;;19.23;11.35;;;;;;;-143.98;100.00;68091.63;6221180;23;20179;-84
2021/05/18 05:40:05;;;;;;;20.70;12.25;;;;;;;-143.98;100.00;68091.63;6247793;23;20047;-85
2021/05/18 05:42:33;;;;;;;25.45;12.60;;;;;;;-143.98;100.00;68091.63;6248826;23;20163;-84
2021/05/18 05:45:06;;;;;;;20.90;10.52;;;;;;;-143.98;100.00;68091.63;6243313;23;20055;-84
2021/05/18 05:47:58;;;;;;;17.08;10.25;;;;;;;-143.98;100.00;68091.63;6220728;23;20067;-84
2021/05/18 05:50:34;;;;;;;17.25;10.40;;;;;;;-143.98;100.00;68091.63;6216857;23;20023;-84
2021/05/18 05:53:07;;;;;;;19.75;10.10;;;;;;;-143.98;100.00;68091.63;6239419;23;20086;-83
2021/05/18 05:55:37;;;;;;;17.52;10.02;;;;;;;-143.98;100.00;68091.63;6245670;22;20226;-86
2021/05/18 05:58:07;;;;;;;15.23;8.88;;;;;;;-143.98;100.00;68091.63;6242048;23;20378;-84
2021/05/18 06:00:34;;;;;;;15.82;9.55;;;;;;;-143.98;100.00;68091.63;6247872;23;20028;-84
2021/05/18 06:03:02;;;;;;;13.68;8.60;;;;;;;-143.98;100.00;68091.63;6246079;23;20306;-84
2021/05/18 06:05:29;;;;;;;17.38;9.18;;;;;;;-143.98;100.00;68091.63;6225126;23;20126;-85
2021/05/18 06:07:59;;;;;;;17.67;8.80;;;;;;;-143.98;100.00;68091.63;6261155;22;20012;-84
2021/05/18 06:10:35;;;;;;;14.13;7.40;;;;;;;-143.98;100.00;68091.63;6259645;23;20031;-85
2021/05/18 06:16:47;;;;;;;14.25;7.90;;;;;;;-143.98;100.00;68091.63;6244347;23;20028;-85
2021/05/18 06:41:39;;;;;;;12.63;7.30;;;;;;;-143.98;100.00;68091.63;6183125;23;20036;-84
2021/05/18 06:47:00;;;;;;;14.43;6.93;;;;;;;-143.98;100.00;68091.63;6248109;23;20363;-84
2021/05/18 06:49:27;;;;;;;9.82;5.82;;;;;;;-143.98;100.00;68091.63;6223873;23;20092;-84
2021/05/18 06:51:55;;;;;;;8.95;5.95;;;;;;;-143.98;100.00;68091.63;6220876;23;20035;-85
2021/05/18 06:54:26;;;;;;;9.40;6.35;;;;;;;-143.98;100.00;68091.63;6221836;23;20127;-85
2021/05/18 06:56:58;;;;;;;9.85;5.75;;;;;;;-143.98;100.00;68091.63;6221665;23;20302;-86
2021/05/18 07:01:59;;;;;;;9.95;5.97;;;;;;;-143.98;100.00;68091.63;6247554;23;20054;-85
2021/05/18 07:04:30;;;;;;;11.98;5.07;;;;;;;-143.98;100.00;68091.63;6223518;23;20031;-84
2021/05/18 07:07:19;;;;;;;6.90;5.47;;;;;;;-143.98;100.00;68091.63;6225433;23;20028;-85
2021/05/18 07:09:50;;;;;;;9.30;5.35;;;;;;;-143.98;100.00;68091.63;6249979;23;20031;-84
2021/05/18 07:12:17;;;;;;;8.95;5.93;;;;;;;-143.98;100.00;68091.63;6223867;23;20024;-84
2021/05/18 07:14:43;;;;;;;9.13;4.97;;;;;;;-143.98;100.00;68091.63;6223703;23;20072;-85
2021/05/18 07:17:15;;;;;;;6.70;4.80;;;;;;;-143.98;100.00;68091.63;6223254;23;20103;-85
2021/05/18 07:19:45;;;;;;;5.30;4.25;;;;;;;-143.98;100.00;68091.63;6246610;23;20062;-86
2021/05/18 07:22:12;;;;;;;7.43;5.15;;;;;;;-143.98;100.00;68091.63;6248393;23;20024;-85
2021/05/18 07:24:53;;;;;;;7.35;4.28;;;;;;;-143.98;100.00;68091.63;6248305;23;20031;-85
2021/05/18 07:27:21;;;;;;;7.50;4.40;;;;;;;-143.98;100.00;68091.63;6223668;23;20210;-85
2021/05/18 07:29:48;;;;;;;7.72;4.63;;;;;;;-143.98;100.00;68091.63;6232925;23;20216;-84
2021/05/18 07:32:15;;;;;;;7.15;4.68;;;;;;;-143.98;100.00;68091.63;6238296;22;20023;-84
2021/05/18 07:34:44;;;;;;;8.20;4.50;;;;;;;-143.98;100.00;68091.63;6262939;22;20051;-85
2021/05/18 07:37:13;;;;;;;9.35;4.63;;;;;;;-143.98;100.00;68091.63;6262711;22;20039;-85
2021/05/18 07:39:42;;;;;;;8.10;4.82;;;;;;;-143.98;100.00;68091.63;6262542;23;20028;-86
2021/05/18 07:42:51;;;;;;;5.95;4.20;;;;;;;-143.98;100.00;68091.63;6256012;23;20056;-85
2021/05/18 07:45:34;;;;;;;6.10;4.05;;;;;;;-143.98;100.00;68091.63;6251476;23;20008;-87
2021/05/18 07:48:13;;;;;;;6.63;4.65;;;;;;;-143.98;100.00;68091.63;6242068;23;20083;-85
2021/05/18 08:07:27;;;;;;;5.10;3.85;;;;;;;-143.98;100.00;68091.63;6257174;23;20028;-85
2021/05/18 08:10:06;;;;;;;5.07;3.72;;;;;;;-143.98;100.00;68091.63;6253478;23;20051;-85
2021/05/18 08:12:35;;;;;;;6.93;3.70;;;;;;;-143.98;100.00;68091.63;6229415;23;20050;-83
2021/05/18 08:15:31;;;;;;;7.15;4.20;;;;;;;-143.98;100.00;68091.63;6234751;23;20031;-84
2021/05/18 08:18:26;;;;;;;4.78;3.08;;;;;;;-143.98;100.00;68091.63;6235640;23;20047;-85
2021/05/18 10:36:03;;;;;;;2.40;1.77;;;;;;;-143.98;100.00;68091.63;6244941;22;20464;-84
2021/05/18 10:38:46;;;;;;;3.60;1.70;;;;;;;-143.98;100.00;68091.63;6219170;23;20039;-84
2021/05/18 10:41:27;;;;;;;5.68;2.10;;;;;;;-143.98;100.00;68091.63;6217521;23;20074;-84
2021/05/18 10:44:01;;;;;;;4.05;1.98;;;;;;;-143.98;100.00;68091.63;6214327;23;20024;-84
2021/05/18 10:46:54;;;;;;;2.38;1.98;;;;;;;-143.98;100.00;68091.63;6218029;23;20043;-84
2021/05/18 10:49:34;;;;;;;2.58;1.77;;;;;;;-143.98;100.00;68091.63;6242956;23;20020;-86
2021/05/18 10:52:13;;;;;;;3.15;2.13;;;;;;;-143.98;100.00;68091.63;6224893;23;20212;-82
2021/05/18 10:54:59;;;;;;;3.75;2.10;;;;;;;-143.98;100.00;68091.63;6230007;22;20057;-84
2021/05/18 10:57:33;;;;;;;3.08;2.00;;;;;;;-143.98;100.00;68091.63;6226399;23;20090;-83
2021/05/18 11:00:07;;;;;;;4.55;2.05;;;;;;;-143.98;100.00;68091.63;6220947;23;20103;-84
2021/05/18 11:02:38;;;;;;;4.30;2.83;;;;;;;-143.98;100.00;68091.63;6216937;23;20398;-85
2021/05/18 11:05:18;;;;;;;4.10;2.30;;;;;;;-143.98;100.00;68091.63;6218068;23;20028;-85
2021/05/18 11:07:48;;;;;;;4.15;2.38;;;;;;;-143.98;100.00;68091.63;6244763;23;20032;-85
2021/05/18 11:10:18;;;;;;;5.72;2.75;;;;;;;-143.98;100.00;68091.63;6221378;23;20106;-86
2021/05/18 11:12:59;;;;;;;3.92;2.30;;;;;;;-143.98;100.00;68091.63;6221351;23;20019;-84
2021/05/18 11:15:30;;;;;;;5.13;2.22;;;;;;;-143.98;100.00;68091.63;6224921;23;20020;-84
2021/05/18 11:17:59;;;;;;;3.13;1.83;;;;;;;-143.98;100.00;68091.63;6249041;23;20024;-84
2021/05/18 11:23:31;;;;;;;6.30;1.75;;;;;;;-143.98;100.00;68091.63;6256131;23;20024;-86
2021/05/18 11:26:04;;;;;;;2.92;1.80;;;;;;;-143.98;100.00;68091.63;6257634;23;20020;-87
2021/05/18 11:28:41;;;;;;;6.30;2.45;;;;;;;-143.98;100.00;68091.63;6234384;23;20028;-85
2021/05/18 11:31:25;;;;;;;5.32;2.22;;;;;;;-143.98;100.00;68091.63;6258604;22;20227;-85
2021/05/18 11:34:04;;;;;;;4.90;2.25;;;;;;;-143.98;100.00;68091.63;6239025;22;20048;-85
2021/05/18 11:36:40;;;;;;;3.00;2.63;;;;;;;-143.98;100.00;68091.63;6234045;22;20087;-85
2021/05/18 11:39:17;;;;;;;6.80;3.17;;;;;;;-143.98;100.00;68091.63;6234281;23;20031;-86
2021/05/18 11:41:53;;;;;;;5.60;2.95;;;;;;;-143.98;100.00;68091.63;6223640;23;20032;-84
2021/05/18 11:44:34;;;;;;;4.40;3.15;;;;;;;-143.98;100.00;68091.63;6237310;22;20028;-84
2021/05/18 11:47:09;;;;;;;4.47;2.40;;;;;;;-143.98;100.00;68091.63;6230427;23;20024;-84
2021/05/18 11:49:48;;;;;;;3.28;2.38;;;;;;;-143.98;100.00;68091.63;6247628;23;20095;-85
2021/05/18 11:52:21;;;;;;;2.15;1.80;;;;;;;-143.98;100.00;68091.63;6225738;23;20239;-84
2021/05/18 11:55:02;;;;;;;4.60;2.20;;;;;;;-143.98;100.00;68091.63;6226640;23;20219;-85
2021/05/18 11:57:36;;;;;;;3.58;2.38;;;;;;;-143.98;100.00;68091.63;6223206;23;20024;-85
2021/05/18 12:00:45;;;;;;;2.42;2.20;;;;;;;-143.98;100.00;68091.63;6250167;23;20062;-85
2021/05/18 12:03:38;;;;;;;3.17;2.20;;;;;;;-143.98;100.00;68091.63;6248724;23;20397;-85
2021/05/18 12:06:42;;;;;;;3.83;1.95;;;;;;;-143.98;100.00;68091.63;6203649;23;20027;-88
2021/05/18 12:09:29;;;;;;;2.97;1.85;;;;;;;-143.98;100.00;68091.63;6253279;23;20032;-85
2021/05/18 12:12:53;;;;;;;2.70;2.33;;;;;;;-143.98;100.00;68091.63;6251789;22;20063;-85
2021/05/18 12:15:23;;;;;;;2.88;2.13;;;;;;;-143.98;100.00;68091.63;6250819;23;20071;-85
2021/05/18 12:18:12;;;;;;;2.38;1.70;;;;;;;-143.98;100.00;68091.63;6255076;22;20031;-85
2021/05/18 12:20:53;;;;;;;5.60;1.88;;;;;;;-143.98;100.00;68091.63;6225294;23;20024;-87
2021/05/18 12:23:22;;;;;;;1.85;1.52;;;;;;;-143.98;100.00;68091.63;6229039;23;20032;-84
2021/05/18 12:26:20;;;;;;;3.83;1.70;;;;;;;-143.98;100.00;68091.63;6233391;23;20064;-86
2021/05/18 12:28:56;;;;;;;3.75;2.08;;;;;;;-143.98;100.00;68091.63;6231014;23;20309;-84
2021/05/18 12:31:34;;;;;;;4.15;2.47;;;;;;;-143.98;100.00;68091.63;6249556;23;20024;-85
2021/05/18 12:34:06;;;;;;;2.28;1.75;;;;;;;-143.98;100.00;68091.63;6264870;22;20156;-86
2021/05/18 12:36:50;;;;;;;3.45;2.20;;;;;;;-143.98;100.00;68091.63;6254922;22;20035;-85
2021/05/18 12:39:18;;;;;;;2.60;2.35;;;;;;;-143.98;100.00;68091.63;6247441;23;20371;-84
2021/05/18 12:42:17;;;;;;;3.72;2.38;;;;;;;-143.98;100.00;68091.63;6247651;23;20102;-85
2021/05/18 12:44:49;;;;;;;7.80;2.22;;;;;;;-143.98;100.00;68091.63;6225801;22;20367;-84
2021/05/18 12:47:34;;;;;;;5.28;2.70;;;;;;;-143.98;100.00;68091.63;6250865;22;20024;-85
2021/05/18 12:50:14;;;;;;;4.13;2.58;;;;;;;-143.98;100.00;68091.63;6246736;23;20078;-84
2021/05/18 12:52:48;;;;;;;5.13;2.80;;;;;;;-143.98;100.00;68091.63;6221502;23;20073;-85
2021/05/18 12:55:23;;;;;;;3.88;2.10;;;;;;;-143.98;100.00;68091.63;6247609;22;20020;-85
2021/05/18 12:58:02;;;;;;;3.53;2.42;;;;;;;-143.98;100.00;68091.63;6249253;23;20087;-85
2021/05/18 13:00:37;;;;;;;2.97;2.67;;;;;;;-143.98;100.00;68091.63;6223363;23;20027;-85
2021/05/18 13:03:31;;;;;;;;;;;;;;;-143.98;100.00;68091.63;6224170;23;20401;-84
2021/05/18 13:05:58;;;;;;;6.90;3.63;;;;;;;-143.98;100.00;68091.63;6247539;23;20006;-85
2021/05/18 13:08:35;;;;;;;2.65;1.90;;;;;;;-143.98;100.00;68091.63;6245844;23;20070;-84
2021/05/18 13:13:55;;;;;;;3.08;1.73;;;;;;;-143.98;100.00;68091.63;6245028;22;20024;-84
2021/05/18 13:16:37;;;;;;;3.03;1.73;;;;;;;-143.98;100.00;68091.63;6221991;23;20054;-85
2021/05/18 13:19:06;;;;;;;5.03;2.30;;;;;;;-143.98;100.00;68091.63;6244373;23;20036;-85
2021/05/18 13:21:57;;;;;;;5.57;2.28;;;;;;;-143.98;100.00;68091.63;6248227;23;20035;-85
2021/05/18 13:26:25;;;;;;;4.55;2.00;;;;;;;-143.98;100.00;68091.63;6224733;23;20024;-84
2021/05/18 13:28:03;;;;;;;2.92;1.98;;;;;;;-143.98;100.00;68091.63;6262316;23;20012;-85
2021/05/18 13:33:58;;;;;;;4.30;2.17;;;;;;;-143.98;100.00;68091.63;6257263;22;20054;-84
2021/05/18 13:36:44;;;;;;;4.80;2.35;;;;;;;-143.98;100.00;68091.63;6226005;23;20020;-85
2021/05/18 13:39:20;;;;;;;6.82;2.75;;;;;;;-143.98;100.00;68091.63;6223075;23;20040;-86
2021/05/18 13:41:48;;;;;;;5.78;2.85;;;;;;;-143.98;100.00;68091.63;6222765;23;20127;-84
2021/05/18 13:44:18;;;;;;;5.78;2.67;;;;;;;-143.98;100.00;68091.63;6249142;23;20239;-85
2021/05/18 13:46:49;;;;;;;5.72;2.70;;;;;;;-143.98;100.00;68091.63;6220723;23;20030;-86
2021/05/18 13:49:16;;;;;;;4.80;2.65;;;;;;;-143.98;100.00;68091.63;6221114;23;20249;-84
2021/05/18 13:51:43;;;;;;;5.68;2.70;;;;;;;26.03;29.89;101094.44;6218710;23;20028;-85
2021/05/18 13:54:32;;;;;;;;;;;;;;;25.79;29.24;101099.25;6225550;23;20349;-85
2021/05/18 13:57:12;;;;;;;7.03;2.65;;;;;;;25.80;29.74;101090.38;6221433;23;19943;-85
2021/05/18 13:59:48;;;;;;;5.00;2.83;;;;;;;25.85;29.53;101089.00;6245009;23;20083;-84
2021/05/18 14:02:19;;;;;;;4.22;2.65;;;;;;;26.27;29.73;101093.19;6243866;23;20058;-83
2021/05/18 14:04:46;;;;;;;4.60;2.58;;;;;;;26.47;28.80;101100.16;6244582;22;20274;-84
2021/05/18 14:10:35;;;;;;;5.05;3.03;;;;;;;26.22;28.19;101096.25;6248380;23;20075;-86
2021/05/18 14:13:19;;;;;;;5.40;2.78;;;;;;;26.35;28.28;101091.53;6240881;23;20283;-85
2021/05/18 14:16:05;;;;;;;6.35;3.42;;;;;;;26.22;28.66;101090.97;6247310;23;20460;-84
2021/05/18 14:18:36;;;;;;;6.18;2.58;;;;;;;26.48;28.92;101101.00;6224143;23;20123;-84
2021/05/18 14:21:05;;;;;;;4.40;3.00;;;;;;;28.26;25.72;101095.47;6223515;23;20035;-84
2021/05/18 14:23:45;;;;;;;4.20;2.80;;;;;;;29.89;24.33;101088.47;6225471;23;20028;-84
2021/05/18 14:26:18;;;;;;;6.57;2.83;;;;;;;29.93;23.66;101085.34;6221954;23;20036;-84
2021/05/18 14:28:46;;;;;;;4.10;2.50;;;;;;;29.49;24.53;101084.69;6246102;23;20451;-84
2021/05/18 14:31:16;;;;;;;3.05;2.00;;;;;;;29.50;23.89;101092.50;6247240;23;20032;-83
2021/05/18 14:34:05;;;;;;;3.67;1.65;;;;;;;28.80;24.24;101090.97;6222562;23;20047;-84
2021/05/18 14:36:33;;;;;;;2.97;1.60;;;;;;;28.18;24.45;101107.69;6247931;23;20421;-84
2021/05/18 14:39:05;;;;;;;3.45;2.00;;;;;;;27.84;25.81;101104.88;6245576;23;20078;-83
2021/05/18 14:44:27;;;;;;;2.00;1.65;;;;;;;27.02;27.03;101107.41;6262053;22;20035;-84
2021/05/18 14:47:14;;;;;;;3.15;2.10;;;;;;;26.96;27.12;101112.31;6264661;22;20012;-84
2021/05/18 14:55:26;;;;;;;3.28;1.60;;;;;;;26.63;27.33;101115.44;6262027;22;19954;-84
2021/05/18 14:57:58;;;;;;;2.80;1.80;;;;;;;26.44;27.34;101119.75;6227908;23;20032;-84
2021/05/18 15:00:39;;;;;;;3.40;1.73;;;;;;;25.92;27.26;101108.59;6250966;23;20499;-84
2021/05/18 15:03:09;;;;;;;5.65;2.42;;;;;;;25.96;27.71;101111.78;6226772;23;20111;-84
2021/05/18 15:05:40;;;;;;;4.00;2.08;;;;;;;26.20;28.45;101112.22;6254065;23;20054;-83
2021/05/18 15:08:23;;;;;;;4.15;2.28;;;;;;;25.89;28.89;101108.03;6206379;23;20390;-85
2021/05/18 15:11:04;;;;;;;3.67;2.15;;;;;;;25.82;28.58;101102.47;6236300;23;20020;-83
2021/05/18 15:13:35;;;;;;;3.28;1.92;;;;;;;25.81;27.84;101102.59;6259158;23;20027;-83
2021/05/18 15:16:09;;;;;;;2.15;1.70;;;;;;;25.87;28.64;101108.16;6237673;22;20185;-83
2021/05/18 15:19:03;;;;;;;3.33;1.70;;;;;;;25.90;28.86;101114.97;6234421;23;20176;-84
2021/05/18 15:21:30;;;;;;;6.07;1.88;;;;;;;25.54;28.74;101111.09;6252923;23;20024;-84
2021/05/18 15:24:05;;;;;;;2.42;2.05;;;;;;;26.14;28.19;101110.13;6228782;23;20035;-84
2021/05/18 15:26:34;;;;;;;3.80;2.00;;;;;;;26.61;27.96;101118.22;6251230;23;20028;-84
2021/05/18 15:29:03;;;;;;;3.88;1.75;;;;;;;27.32;26.59;101115.13;6251652;23;20097;-84
2021/05/18 15:31:33;;;;;;;2.67;1.58;;;;;;;28.09;26.47;101111.22;6228314;23;20059;-84
2021/05/18 15:34:13;;;;;;;3.28;1.85;;;;;;;28.53;24.57;101113.94;6253184;23;20067;-84
2021/05/18 15:39:57;;;;;;;2.45;1.63;;;;;;;28.49;24.88;101117.88;6234812;23;20063;-84
2021/05/18 15:42:26;;;;;;;2.28;1.60;;;;;;;28.43;25.34;101115.88;6229484;23;20048;-84
2021/05/18 15:44:54;;;;;;;3.63;1.73;;;;;;;28.34;25.48;101116.78;6252962;23;20112;-83
2021/05/18 15:47:22;;;;;;;3.13;1.50;;;;;;;28.18;26.58;101118.25;6240863;22;20074;-84
2021/05/18 15:49:52;;;;;;;3.50;2.10;;;;;;;28.23;26.88;101105.41;6240127;22;20016;-85
2021/05/18 15:52:25;;;;;;;2.97;1.70;;;;;;;28.09;25.87;101119.16;6232280;22;20346;-85
2021/05/18 15:55:00;;;;;;;2.53;1.38;;;;;;;27.62;26.17;101114.03;6227317;23;20024;-85
2021/05/18 15:57:29;;;;;;;2.65;1.98;;;;;;;27.56;25.71;101117.25;6251640;22;20032;-84
2021/05/18 16:00:13;;;;;;;2.72;2.03;;;;;;;27.47;27.14;101112.81;6228594;23;20051;-84
2021/05/18 16:02:43;;;;;;;1.92;1.58;;;;;;;27.26;26.95;101122.81;6251582;23;20050;-84
2021/05/18 16:05:12;;;;;;;2.90;1.98;;;;;;;27.34;26.51;101122.94;6253435;23;20024;-84
2021/05/18 16:07:43;;;;;;;3.95;1.60;;;;;;;27.19;27.08;101120.75;6264364;22;20084;-85
2021/05/18 16:10:12;;;;;;;2.08;1.33;;;;;;;26.89;27.84;101129.72;6257749;23;20023;-84
2021/05/18 16:12:44;;;;;;;3.05;1.80;;;;;;;26.54;27.50;101130.28;6251700;23;20038;-83
2021/05/18 16:15:20;;;;;;;143.27;14.77;;;;;;;26.58;28.42;101130.84;6229287;23;20261;-84
2021/05/18 16:18:25;;;;;;;6.03;2.33;;;;;;;26.51;26.69;101125.31;6250273;23;20027;-84
2021/05/18 16:21:09;;;;;;;3.33;2.22;;;;;;;26.34;26.75;101120.69;6250750;23;20024;-83
2021/05/18 16:23:42;;;;;;;5.43;2.53;;;;;;;26.26;26.66;101124.03;6228344;23;20031;-84
2021/05/18 16:26:13;;;;;;;4.45;1.90;;;;;;;26.24;26.80;101131.25;6250344;23;20025;-84
2021/05/18 16:28:45;;;;;;;3.08;1.20;;;;;;;25.88;27.10;101122.19;6227952;23;20081;-83
2021/05/18 16:31:13;;;;;;;2.50;1.63;;;;;;;25.71;27.72;101122.78;6227182;23;20106;-84
2021/05/18 16:33:41;;;;;;;1.98;1.30;;;;;;;25.76;28.71;101120.63;6257203;22;20388;-83
2021/05/18 16:36:25;;;;;;;3.38;1.70;;;;;;;25.73;28.38;101128.78;6252106;23;20030;-83
2021/05/18 16:38:57;;;;;;;2.28;1.73;;;;;;;25.78;29.34;101127.44;6253840;23;20035;-83
2021/05/18 16:41:39;;;;;;;1.63;1.13;;;;;;;25.67;28.90;101132.78;6250853;23;20028;-83
2021/05/18 16:44:08;;;;;;;3.08;1.77;;;;;;;24.91;29.21;101141.00;6228980;23;20051;-84
2021/05/18 16:46:39;;;;;;;6.03;2.20;;;;;;;24.85;29.13;101136.25;6252141;22;20047;-84
2021/05/18 16:49:10;;;;;;;2.50;1.77;;;;;;;24.67;29.63;101146.50;6248469;23;20019;-84